sensor_id;sensor_type;location;lat;lon;timestamp;P1;durP1;ratioP1;P2;durP2;ratioP2
64915;SDS011;51427;-27.442;153.014;2023-01-04T00:01:12;6.90;;;3.00;;
64915;SDS011;51427;-27.442;153.014;2023-01-04T00:03:41;6.57;;;2.80;;
64915;SDS011;51427;-27.442;153.014;2023-01-04T00:06:10;7.50;;;2.67;;
64915;SDS011;51427;-27.442;153.014;2023-01-04T00:08:38;5.72;;;2.78;;
64915;SDS011;51427;-27.442;153.014;2023-01-04T00:11:10;6.25;;;2.90;;
64915;SDS011;51427;-27.442;153.014;2023-01-04T00:13:39;10.80;;;3.30;;
64915;SDS011;51427;-27.442;153.014;2023-01-04T00:16:08;7.88;;;3.05;;
64915;SDS011;51427;-27.442;153.014;2023-01-04T00:18:38;7.22;;;3.10;;
64915;SDS011;51427;-27.442;153.014;2023-01-04T00:21:09;8.77;;;3.45;;
64915;SDS011;51427;-27.442;153.014;2023-01-04T00:23:38;7.93;;;3.10;;
64915;SDS011;51427;-27.442;153.014;2023-01-04T00:26:08;8.02;;;3.13;;
64915;SDS011;51427;-27.442;153.014;2023-01-04T00:28:40;8.80;;;3.28;;
64915;SDS011;51427;-27.442;153.014;2023-01-04T00:31:09;11.35;;;3.28;;
64915;SDS011;51427;-27.442;153.014;2023-01-04T00:33:37;10.68;;;4.03;;
64915;SDS011;51427;-27.442;153.014;2023-01-04T00:36:11;8.88;;;3.30;;
64915;SDS011;51427;-27.442;153.014;2023-01-04T00:38:39;7.38;;;3.22;;
64915;SDS011;51427;-27.442;153.014;2023-01-04T00:41:07;9.10;;;3.15;;
64915;SDS011;51427;-27.442;153.014;2023-01-04T00:43:35;7.00;;;3.38;;
64915;SDS011;51427;-27.442;153.014;2023-01-04T00:46:03;9.43;;;3.67;;
64915;SDS011;51427;-27.442;153.014;2023-01-04T00:48:32;9.07;;;3.33;;
64915;SDS011;51427;-27.442;153.014;2023-01-04T00:50:59;8.38;;;3.35;;
64915;SDS011;51427;-27.442;153.014;2023-01-04T00:53:26;9.60;;;3.40;;
64915;SDS011;51427;-27.442;153.014;2023-01-04T00:55:57;7.05;;;2.85;;
64915;SDS011;51427;-27.442;153.014;2023-01-04T00:58:26;7.47;;;2.95;;
64915;SDS011;51427;-27.442;153.014;2023-01-04T01:00:53;10.23;;;3.10;;
64915;SDS011;51427;-27.442;153.014;2023-01-04T01:03:20;7.57;;;2.97;;
64915;SDS011;51427;-27.442;153.014;2023-01-04T01:05:47;7.97;;;3.05;;
64915;SDS011;51427;-27.442;153.014;2023-01-04T01:08:15;7.38;;;3.20;;
64915;SDS011;51427;-27.442;153.014;2023-01-04T01:10:51;6.97;;;2.80;;
64915;SDS011;51427;-27.442;153.014;2023-01-04T01:13:19;10.70;;;2.70;;
64915;SDS011;51427;-27.442;153.014;2023-01-04T01:15:48;6.00;;;3.30;;
64915;SDS011;51427;-27.442;153.014;2023-01-04T01:18:15;10.45;;;3.55;;
64915;SDS011;51427;-27.442;153.014;2023-01-04T01:20:45;8.07;;;3.50;;
64915;SDS011;51427;-27.442;153.014;2023-01-04T01:23:13;7.50;;;3.25;;
64915;SDS011;51427;-27.442;153.014;2023-01-04T01:25:41;7.63;;;3.10;;
64915;SDS011;51427;-27.442;153.014;2023-01-04T01:28:08;7.10;;;2.95;;
64915;SDS011;51427;-27.442;153.014;2023-01-04T01:30:39;10.23;;;3.13;;
64915;SDS011;51427;-27.442;153.014;2023-01-04T01:33:10;11.52;;;3.10;;
64915;SDS011;51427;-27.442;153.014;2023-01-04T01:35:37;6.15;;;2.88;;
64915;SDS011;51427;-27.442;153.014;2023-01-04T01:38:05;10.55;;;3.15;;
64915;SDS011;51427;-27.442;153.014;2023-01-04T01:40:32;8.05;;;2.83;;
64915;SDS011;51427;-27.442;153.014;2023-01-04T01:42:59;10.30;;;3.20;;
64915;SDS011;51427;-27.442;153.014;2023-01-04T01:45:28;7.07;;;2.75;;
64915;SDS011;51427;-27.442;153.014;2023-01-04T01:48:00;6.10;;;2.90;;
64915;SDS011;51427;-27.442;153.014;2023-01-04T01:50:39;9.35;;;3.30;;
64915;SDS011;51427;-27.442;153.014;2023-01-04T01:53:29;6.85;;;2.83;;
64915;SDS011;51427;-27.442;153.014;2023-01-04T01:56:00;7.63;;;3.03;;
64915;SDS011;51427;-27.442;153.014;2023-01-04T01:58:33;9.60;;;2.88;;
64915;SDS011;51427;-27.442;153.014;2023-01-04T02:01:06;6.00;;;2.63;;
64915;SDS011;51427;-27.442;153.014;2023-01-04T02:03:35;6.82;;;3.00;;
64915;SDS011;51427;-27.442;153.014;2023-01-04T02:06:08;10.07;;;3.25;;
64915;SDS011;51427;-27.442;153.014;2023-01-04T02:08:38;6.10;;;3.03;;
64915;SDS011;51427;-27.442;153.014;2023-01-04T02:11:07;7.75;;;3.05;;
64915;SDS011;51427;-27.442;153.014;2023-01-04T02:13:35;9.65;;;3.10;;
64915;SDS011;51427;-27.442;153.014;2023-01-04T02:27:43;7.03;;;2.80;;
64915;SDS011;51427;-27.442;153.014;2023-01-04T02:35:31;11.32;;;3.33;;
64915;SDS011;51427;-27.442;153.014;2023-01-04T02:43:45;8.82;;;3.15;;
64915;SDS011;51427;-27.442;153.014;2023-01-04T02:46:40;9.10;;;3.10;;
64915;SDS011;51427;-27.442;153.014;2023-01-04T02:49:12;7.00;;;2.95;;
64915;SDS011;51427;-27.442;153.014;2023-01-04T02:51:58;5.63;;;3.22;;
64915;SDS011;51427;-27.442;153.014;2023-01-04T02:54:26;7.03;;;3.78;;
64915;SDS011;51427;-27.442;153.014;2023-01-04T03:11:36;10.80;;;3.80;;
64915;SDS011;51427;-27.442;153.014;2023-01-04T03:16:57;9.95;;;3.50;;
64915;SDS011;51427;-27.442;153.014;2023-01-04T03:19:30;7.13;;;3.30;;
64915;SDS011;51427;-27.442;153.014;2023-01-04T03:22:31;8.57;;;3.60;;
64915;SDS011;51427;-27.442;153.014;2023-01-04T03:25:46;11.90;;;3.53;;
64915;SDS011;51427;-27.442;153.014;2023-01-04T03:29:00;6.05;;;3.70;;
64915;SDS011;51427;-27.442;153.014;2023-01-04T03:32:04;10.63;;;3.53;;
64915;SDS011;51427;-27.442;153.014;2023-01-04T03:34:54;6.45;;;3.47;;
64915;SDS011;51427;-27.442;153.014;2023-01-04T03:40:41;6.07;;;3.05;;
64915;SDS011;51427;-27.442;153.014;2023-01-04T03:44:15;6.93;;;3.42;;
64915;SDS011;51427;-27.442;153.014;2023-01-04T03:46:47;8.75;;;3.08;;
64915;SDS011;51427;-27.442;153.014;2023-01-04T03:49:44;9.77;;;3.17;;
64915;SDS011;51427;-27.442;153.014;2023-01-04T03:52:15;6.78;;;3.53;;
64915;SDS011;51427;-27.442;153.014;2023-01-04T03:54:44;6.80;;;2.88;;
64915;SDS011;51427;-27.442;153.014;2023-01-04T03:57:14;5.38;;;2.78;;
64915;SDS011;51427;-27.442;153.014;2023-01-04T03:59:44;7.78;;;3.08;;
64915;SDS011;51427;-27.442;153.014;2023-01-04T04:02:14;6.90;;;3.15;;
64915;SDS011;51427;-27.442;153.014;2023-01-04T04:04:47;7.65;;;3.10;;
64915;SDS011;51427;-27.442;153.014;2023-01-04T04:07:33;5.63;;;2.90;;
64915;SDS011;51427;-27.442;153.014;2023-01-04T04:10:18;5.45;;;2.75;;
64915;SDS011;51427;-27.442;153.014;2023-01-04T04:12:45;9.02;;;2.72;;
64915;SDS011;51427;-27.442;153.014;2023-01-04T04:15:13;9.77;;;3.03;;
64915;SDS011;51427;-27.442;153.014;2023-01-04T04:17:41;6.63;;;2.80;;
64915;SDS011;51427;-27.442;153.014;2023-01-04T04:20:09;7.63;;;2.83;;
64915;SDS011;51427;-27.442;153.014;2023-01-04T04:22:37;6.47;;;3.05;;
64915;SDS011;51427;-27.442;153.014;2023-01-04T04:25:05;8.57;;;3.20;;
64915;SDS011;51427;-27.442;153.014;2023-01-04T04:27:33;5.75;;;2.92;;
64915;SDS011;51427;-27.442;153.014;2023-01-04T04:30:00;8.75;;;3.15;;
64915;SDS011;51427;-27.442;153.014;2023-01-04T04:32:28;8.00;;;2.90;;
64915;SDS011;51427;-27.442;153.014;2023-01-04T04:34:55;6.97;;;2.42;;
64915;SDS011;51427;-27.442;153.014;2023-01-04T04:37:22;6.82;;;3.08;;
64915;SDS011;51427;-27.442;153.014;2023-01-04T04:39:51;8.32;;;2.58;;
64915;SDS011;51427;-27.442;153.014;2023-01-04T04:42:18;8.02;;;2.72;;
64915;SDS011;51427;-27.442;153.014;2023-01-04T04:44:46;6.85;;;3.03;;
64915;SDS011;51427;-27.442;153.014;2023-01-04T04:47:13;8.93;;;3.17;;
64915;SDS011;51427;-27.442;153.014;2023-01-04T04:49:40;7.03;;;2.17;;
64915;SDS011;51427;-27.442;153.014;2023-01-04T04:52:07;7.90;;;2.67;;
64915;SDS011;51427;-27.442;153.014;2023-01-04T04:54:34;10.93;;;2.90;;
64915;SDS011;51427;-27.442;153.014;2023-01-04T04:57:02;8.63;;;2.90;;
64915;SDS011;51427;-27.442;153.014;2023-01-04T04:59:29;8.85;;;2.80;;
64915;SDS011;51427;-27.442;153.014;2023-01-04T05:01:57;8.80;;;2.83;;
64915;SDS011;51427;-27.442;153.014;2023-01-04T05:04:24;6.65;;;2.47;;
64915;SDS011;51427;-27.442;153.014;2023-01-04T05:06:51;10.48;;;3.00;;
64915;SDS011;51427;-27.442;153.014;2023-01-04T05:09:18;7.28;;;2.75;;
64915;SDS011;51427;-27.442;153.014;2023-01-04T05:11:45;10.02;;;3.20;;
64915;SDS011;51427;-27.442;153.014;2023-01-04T05:14:31;7.00;;;2.70;;
64915;SDS011;51427;-27.442;153.014;2023-01-04T05:16:58;7.45;;;2.53;;
64915;SDS011;51427;-27.442;153.014;2023-01-04T05:19:25;9.00;;;2.90;;
64915;SDS011;51427;-27.442;153.014;2023-01-04T05:21:52;11.60;;;2.88;;
64915;SDS011;51427;-27.442;153.014;2023-01-04T05:24:19;9.88;;;2.45;;
64915;SDS011;51427;-27.442;153.014;2023-01-04T05:26:47;6.00;;;2.47;;
64915;SDS011;51427;-27.442;153.014;2023-01-04T05:29:14;8.95;;;2.55;;
64915;SDS011;51427;-27.442;153.014;2023-01-04T05:31:59;5.68;;;2.67;;
64915;SDS011;51427;-27.442;153.014;2023-01-04T05:34:26;8.35;;;2.13;;
64915;SDS011;51427;-27.442;153.014;2023-01-04T05:36:53;9.50;;;2.80;;
64915;SDS011;51427;-27.442;153.014;2023-01-04T05:39:20;6.95;;;2.55;;
64915;SDS011;51427;-27.442;153.014;2023-01-04T05:41:47;9.55;;;2.67;;
64915;SDS011;51427;-27.442;153.014;2023-01-04T05:44:33;12.07;;;2.67;;
64915;SDS011;51427;-27.442;153.014;2023-01-04T05:47:00;5.63;;;2.80;;
64915;SDS011;51427;-27.442;153.014;2023-01-04T05:49:27;10.55;;;2.58;;
64915;SDS011;51427;-27.442;153.014;2023-01-04T05:51:54;9.55;;;2.75;;
64915;SDS011;51427;-27.442;153.014;2023-01-04T05:54:21;11.13;;;3.33;;
64915;SDS011;51427;-27.442;153.014;2023-01-04T05:56:49;9.52;;;2.80;;
64915;SDS011;51427;-27.442;153.014;2023-01-04T05:59:16;7.85;;;2.72;;
64915;SDS011;51427;-27.442;153.014;2023-01-04T06:01:43;9.82;;;2.90;;
64915;SDS011;51427;-27.442;153.014;2023-01-04T06:04:10;8.40;;;2.50;;
64915;SDS011;51427;-27.442;153.014;2023-01-04T06:06:37;7.70;;;2.92;;
64915;SDS011;51427;-27.442;153.014;2023-01-04T06:09:05;7.60;;;2.50;;
64915;SDS011;51427;-27.442;153.014;2023-01-04T06:11:32;12.80;;;3.20;;
64915;SDS011;51427;-27.442;153.014;2023-01-04T06:13:59;12.57;;;2.65;;
64915;SDS011;51427;-27.442;153.014;2023-01-04T06:16:26;6.95;;;2.40;;
64915;SDS011;51427;-27.442;153.014;2023-01-04T06:18:54;8.02;;;3.28;;
64915;SDS011;51427;-27.442;153.014;2023-01-04T06:21:21;8.45;;;2.78;;
64915;SDS011;51427;-27.442;153.014;2023-01-04T06:23:50;7.68;;;2.83;;
64915;SDS011;51427;-27.442;153.014;2023-01-04T06:26:18;8.00;;;3.08;;
64915;SDS011;51427;-27.442;153.014;2023-01-04T06:28:46;8.32;;;2.65;;
64915;SDS011;51427;-27.442;153.014;2023-01-04T06:31:13;10.32;;;3.40;;
64915;SDS011;51427;-27.442;153.014;2023-01-04T06:33:40;8.18;;;2.70;;
64915;SDS011;51427;-27.442;153.014;2023-01-04T06:36:07;8.95;;;2.88;;
64915;SDS011;51427;-27.442;153.014;2023-01-04T06:38:34;7.78;;;2.58;;
64915;SDS011;51427;-27.442;153.014;2023-01-04T06:41:02;9.68;;;2.67;;
64915;SDS011;51427;-27.442;153.014;2023-01-04T06:43:29;6.95;;;2.83;;
64915;SDS011;51427;-27.442;153.014;2023-01-04T06:45:56;9.88;;;2.92;;
64915;SDS011;51427;-27.442;153.014;2023-01-04T06:48:26;8.00;;;2.50;;
64915;SDS011;51427;-27.442;153.014;2023-01-04T06:50:53;8.52;;;2.50;;
64915;SDS011;51427;-27.442;153.014;2023-01-04T06:53:20;8.02;;;2.45;;
64915;SDS011;51427;-27.442;153.014;2023-01-04T06:55:47;8.32;;;2.90;;
64915;SDS011;51427;-27.442;153.014;2023-01-04T06:58:15;7.18;;;2.22;;
64915;SDS011;51427;-27.442;153.014;2023-01-04T07:00:43;10.32;;;2.60;;
64915;SDS011;51427;-27.442;153.014;2023-01-04T07:03:11;10.82;;;2.70;;
64915;SDS011;51427;-27.442;153.014;2023-01-04T07:05:39;6.00;;;2.30;;
64915;SDS011;51427;-27.442;153.014;2023-01-04T07:08:06;10.20;;;2.78;;
64915;SDS011;51427;-27.442;153.014;2023-01-04T07:10:33;9.20;;;3.10;;
64915;SDS011;51427;-27.442;153.014;2023-01-04T07:13:01;8.32;;;2.80;;
64915;SDS011;51427;-27.442;153.014;2023-01-04T07:15:28;6.30;;;2.30;;
64915;SDS011;51427;-27.442;153.014;2023-01-04T07:17:55;6.55;;;2.78;;
64915;SDS011;51427;-27.442;153.014;2023-01-04T07:20:23;11.63;;;3.00;;
64915;SDS011;51427;-27.442;153.014;2023-01-04T07:22:50;10.82;;;2.35;;
64915;SDS011;51427;-27.442;153.014;2023-01-04T07:25:18;7.47;;;2.33;;
64915;SDS011;51427;-27.442;153.014;2023-01-04T07:27:52;10.82;;;2.65;;
64915;SDS011;51427;-27.442;153.014;2023-01-04T07:30:20;9.52;;;2.60;;
64915;SDS011;51427;-27.442;153.014;2023-01-04T07:32:50;13.25;;;2.90;;
64915;SDS011;51427;-27.442;153.014;2023-01-04T07:35:18;13.55;;;3.15;;
64915;SDS011;51427;-27.442;153.014;2023-01-04T07:37:46;11.10;;;2.42;;
64915;SDS011;51427;-27.442;153.014;2023-01-04T07:40:14;7.43;;;2.88;;
64915;SDS011;51427;-27.442;153.014;2023-01-04T07:42:41;6.55;;;2.03;;
64915;SDS011;51427;-27.442;153.014;2023-01-04T07:45:09;8.32;;;2.63;;
64915;SDS011;51427;-27.442;153.014;2023-01-04T07:47:36;9.60;;;2.30;;
64915;SDS011;51427;-27.442;153.014;2023-01-04T07:50:03;7.90;;;2.45;;
64915;SDS011;51427;-27.442;153.014;2023-01-04T07:52:31;10.75;;;2.92;;
64915;SDS011;51427;-27.442;153.014;2023-01-04T07:54:58;8.70;;;2.35;;
64915;SDS011;51427;-27.442;153.014;2023-01-04T07:57:25;11.27;;;2.45;;
64915;SDS011;51427;-27.442;153.014;2023-01-04T07:59:52;9.75;;;2.92;;
64915;SDS011;51427;-27.442;153.014;2023-01-04T08:02:20;11.48;;;2.88;;
64915;SDS011;51427;-27.442;153.014;2023-01-04T08:04:47;12.55;;;2.72;;
64915;SDS011;51427;-27.442;153.014;2023-01-04T08:07:14;11.23;;;3.15;;
64915;SDS011;51427;-27.442;153.014;2023-01-04T08:09:41;7.30;;;2.40;;
64915;SDS011;51427;-27.442;153.014;2023-01-04T08:12:09;11.75;;;3.00;;
64915;SDS011;51427;-27.442;153.014;2023-01-04T08:14:36;7.45;;;2.20;;
64915;SDS011;51427;-27.442;153.014;2023-01-04T08:17:03;9.50;;;2.85;;
64915;SDS011;51427;-27.442;153.014;2023-01-04T08:19:30;14.95;;;5.80;;
64915;SDS011;51427;-27.442;153.014;2023-01-04T08:21:58;13.15;;;4.60;;
64915;SDS011;51427;-27.442;153.014;2023-01-04T08:24:25;21.55;;;13.73;;
64915;SDS011;51427;-27.442;153.014;2023-01-04T08:26:52;10.32;;;3.17;;
64915;SDS011;51427;-27.442;153.014;2023-01-04T08:29:19;9.57;;;2.47;;
64915;SDS011;51427;-27.442;153.014;2023-01-04T08:31:47;7.00;;;2.30;;
64915;SDS011;51427;-27.442;153.014;2023-01-04T08:34:14;16.25;;;6.28;;
64915;SDS011;51427;-27.442;153.014;2023-01-04T08:36:48;12.38;;;3.38;;
64915;SDS011;51427;-27.442;153.014;2023-01-04T08:39:18;11.95;;;3.05;;
64915;SDS011;51427;-27.442;153.014;2023-01-04T08:41:46;10.90;;;3.05;;
64915;SDS011;51427;-27.442;153.014;2023-01-04T08:44:20;13.50;;;3.30;;
64915;SDS011;51427;-27.442;153.014;2023-01-04T08:46:49;11.15;;;2.88;;
64915;SDS011;51427;-27.442;153.014;2023-01-04T08:49:18;9.45;;;3.10;;
64915;SDS011;51427;-27.442;153.014;2023-01-04T08:51:47;6.65;;;2.58;;
64915;SDS011;51427;-27.442;153.014;2023-01-04T08:54:14;8.32;;;3.10;;
64915;SDS011;51427;-27.442;153.014;2023-01-04T08:56:42;8.90;;;2.70;;
64915;SDS011;51427;-27.442;153.014;2023-01-04T08:59:10;11.32;;;2.75;;
64915;SDS011;51427;-27.442;153.014;2023-01-04T09:01:38;10.40;;;3.17;;
64915;SDS011;51427;-27.442;153.014;2023-01-04T09:04:06;8.98;;;2.75;;
64915;SDS011;51427;-27.442;153.014;2023-01-04T09:06:34;12.25;;;3.03;;
64915;SDS011;51427;-27.442;153.014;2023-01-04T09:09:01;11.52;;;3.20;;
64915;SDS011;51427;-27.442;153.014;2023-01-04T09:11:29;10.63;;;2.65;;
64915;SDS011;51427;-27.442;153.014;2023-01-04T09:13:57;11.07;;;2.97;;
64915;SDS011;51427;-27.442;153.014;2023-01-04T09:16:25;8.75;;;2.42;;
64915;SDS011;51427;-27.442;153.014;2023-01-04T09:18:53;12.90;;;2.58;;
64915;SDS011;51427;-27.442;153.014;2023-01-04T09:21:21;11.48;;;3.15;;
64915;SDS011;51427;-27.442;153.014;2023-01-04T09:23:48;10.63;;;2.80;;
64915;SDS011;51427;-27.442;153.014;2023-01-04T09:26:17;13.18;;;3.47;;
64915;SDS011;51427;-27.442;153.014;2023-01-04T09:28:49;10.93;;;3.15;;
64915;SDS011;51427;-27.442;153.014;2023-01-04T09:31:20;12.02;;;3.28;;
64915;SDS011;51427;-27.442;153.014;2023-01-04T09:33:49;10.55;;;2.45;;
64915;SDS011;51427;-27.442;153.014;2023-01-04T09:36:18;16.45;;;3.53;;
64915;SDS011;51427;-27.442;153.014;2023-01-04T09:38:46;10.77;;;3.03;;
64915;SDS011;51427;-27.442;153.014;2023-01-04T09:41:17;14.15;;;3.42;;
64915;SDS011;51427;-27.442;153.014;2023-01-04T09:44:01;10.60;;;2.85;;
64915;SDS011;51427;-27.442;153.014;2023-01-04T09:52:35;12.52;;;3.10;;
64915;SDS011;51427;-27.442;153.014;2023-01-04T09:59:54;12.65;;;3.00;;
64915;SDS011;51427;-27.442;153.014;2023-01-04T10:02:48;10.60;;;2.85;;
64915;SDS011;51427;-27.442;153.014;2023-01-04T10:05:17;12.00;;;3.08;;
64915;SDS011;51427;-27.442;153.014;2023-01-04T10:07:51;10.95;;;3.17;;
64915;SDS011;51427;-27.442;153.014;2023-01-04T10:16:27;10.23;;;2.88;;
64915;SDS011;51427;-27.442;153.014;2023-01-04T10:22:26;9.52;;;3.03;;
64915;SDS011;51427;-27.442;153.014;2023-01-04T10:25:29;9.13;;;3.10;;
64915;SDS011;51427;-27.442;153.014;2023-01-04T10:33:43;12.30;;;3.67;;
64915;SDS011;51427;-27.442;153.014;2023-01-04T10:36:13;10.68;;;3.03;;
64915;SDS011;51427;-27.442;153.014;2023-01-04T10:38:44;10.57;;;2.97;;
64915;SDS011;51427;-27.442;153.014;2023-01-04T10:41:18;12.20;;;3.50;;
64915;SDS011;51427;-27.442;153.014;2023-01-04T10:44:00;12.93;;;2.88;;
64915;SDS011;51427;-27.442;153.014;2023-01-04T10:49:28;12.30;;;3.45;;
64915;SDS011;51427;-27.442;153.014;2023-01-04T10:52:08;11.07;;;3.22;;
64915;SDS011;51427;-27.442;153.014;2023-01-04T10:57:19;9.57;;;3.20;;
64915;SDS011;51427;-27.442;153.014;2023-01-04T10:59:54;16.27;;;3.67;;
64915;SDS011;51427;-27.442;153.014;2023-01-04T11:02:39;16.58;;;4.03;;
64915;SDS011;51427;-27.442;153.014;2023-01-04T11:05:31;11.07;;;3.45;;
64915;SDS011;51427;-27.442;153.014;2023-01-04T11:08:12;15.68;;;3.70;;
64915;SDS011;51427;-27.442;153.014;2023-01-04T11:10:43;10.50;;;3.45;;
64915;SDS011;51427;-27.442;153.014;2023-01-04T11:13:30;16.13;;;3.85;;
64915;SDS011;51427;-27.442;153.014;2023-01-04T11:15:58;16.15;;;3.80;;
64915;SDS011;51427;-27.442;153.014;2023-01-04T11:18:27;17.35;;;4.15;;
64915;SDS011;51427;-27.442;153.014;2023-01-04T11:20:56;14.88;;;3.95;;
64915;SDS011;51427;-27.442;153.014;2023-01-04T11:23:24;11.00;;;3.53;;
64915;SDS011;51427;-27.442;153.014;2023-01-04T11:26:05;14.50;;;4.28;;
64915;SDS011;51427;-27.442;153.014;2023-01-04T11:29:05;17.40;;;4.40;;
64915;SDS011;51427;-27.442;153.014;2023-01-04T11:34:51;17.05;;;4.55;;
64915;SDS011;51427;-27.442;153.014;2023-01-04T11:37:37;16.15;;;4.28;;
64915;SDS011;51427;-27.442;153.014;2023-01-04T11:45:19;8.07;;;2.15;;
64915;SDS011;51427;-27.442;153.014;2023-01-04T11:47:53;6.40;;;1.80;;
64915;SDS011;51427;-27.442;153.014;2023-01-04T11:50:39;7.88;;;2.65;;
64915;SDS011;51427;-27.442;153.014;2023-01-04T11:53:24;6.07;;;2.40;;
64915;SDS011;51427;-27.442;153.014;2023-01-04T11:59:18;7.95;;;2.80;;
64915;SDS011;51427;-27.442;153.014;2023-01-04T12:01:46;3.05;;;1.42;;
64915;SDS011;51427;-27.442;153.014;2023-01-04T12:04:23;3.72;;;1.10;;
64915;SDS011;51427;-27.442;153.014;2023-01-04T12:06:54;3.60;;;1.50;;
64915;SDS011;51427;-27.442;153.014;2023-01-04T12:09:25;5.07;;;1.85;;
64915;SDS011;51427;-27.442;153.014;2023-01-04T12:11:58;6.40;;;1.92;;
64915;SDS011;51427;-27.442;153.014;2023-01-04T12:17:10;5.40;;;2.35;;
64915;SDS011;51427;-27.442;153.014;2023-01-04T12:19:42;7.00;;;2.75;;
64915;SDS011;51427;-27.442;153.014;2023-01-04T12:22:23;7.40;;;2.63;;
64915;SDS011;51427;-27.442;153.014;2023-01-04T12:24:50;13.85;;;2.67;;
64915;SDS011;51427;-27.442;153.014;2023-01-04T12:27:18;6.60;;;2.42;;
64915;SDS011;51427;-27.442;153.014;2023-01-04T12:29:53;7.72;;;2.25;;
64915;SDS011;51427;-27.442;153.014;2023-01-04T12:34:54;11.43;;;2.67;;
64915;SDS011;51427;-27.442;153.014;2023-01-04T12:45:41;8.82;;;2.60;;
64915;SDS011;51427;-27.442;153.014;2023-01-04T12:51:18;8.82;;;2.58;;
64915;SDS011;51427;-27.442;153.014;2023-01-04T12:53:51;9.05;;;3.17;;
64915;SDS011;51427;-27.442;153.014;2023-01-04T12:56:37;10.57;;;3.08;;
64915;SDS011;51427;-27.442;153.014;2023-01-04T12:59:31;13.85;;;3.47;;
64915;SDS011;51427;-27.442;153.014;2023-01-04T13:02:16;13.90;;;3.72;;
64915;SDS011;51427;-27.442;153.014;2023-01-04T13:04:47;14.38;;;3.38;;
64915;SDS011;51427;-27.442;153.014;2023-01-04T13:07:25;15.50;;;4.10;;
64915;SDS011;51427;-27.442;153.014;2023-01-04T13:09:58;13.85;;;3.75;;
64915;SDS011;51427;-27.442;153.014;2023-01-04T13:14:56;13.82;;;3.42;;
64915;SDS011;51427;-27.442;153.014;2023-01-04T13:17:29;10.07;;;3.25;;
64915;SDS011;51427;-27.442;153.014;2023-01-04T13:20:16;13.10;;;3.38;;
64915;SDS011;51427;-27.442;153.014;2023-01-04T13:22:50;9.45;;;2.80;;
64915;SDS011;51427;-27.442;153.014;2023-01-04T13:25:19;11.32;;;3.30;;
64915;SDS011;51427;-27.442;153.014;2023-01-04T13:28:01;8.90;;;3.00;;
64915;SDS011;51427;-27.442;153.014;2023-01-04T13:30:37;13.82;;;3.50;;
64915;SDS011;51427;-27.442;153.014;2023-01-04T13:33:22;14.10;;;2.85;;
64915;SDS011;51427;-27.442;153.014;2023-01-04T13:36:23;17.48;;;3.47;;
64915;SDS011;51427;-27.442;153.014;2023-01-04T13:38:43;16.70;;;3.50;;
64915;SDS011;51427;-27.442;153.014;2023-01-04T13:41:20;17.00;;;3.83;;
64915;SDS011;51427;-27.442;153.014;2023-01-04T13:43:53;14.52;;;3.83;;
64915;SDS011;51427;-27.442;153.014;2023-01-04T13:46:30;15.10;;;3.72;;
64915;SDS011;51427;-27.442;153.014;2023-01-04T13:48:58;17.35;;;3.83;;
64915;SDS011;51427;-27.442;153.014;2023-01-04T13:51:31;14.95;;;3.72;;
64915;SDS011;51427;-27.442;153.014;2023-01-04T13:54:03;14.55;;;3.60;;
64915;SDS011;51427;-27.442;153.014;2023-01-04T13:56:32;15.00;;;3.63;;
64915;SDS011;51427;-27.442;153.014;2023-01-04T13:59:00;13.80;;;4.05;;
64915;SDS011;51427;-27.442;153.014;2023-01-04T14:01:28;18.50;;;3.67;;
64915;SDS011;51427;-27.442;153.014;2023-01-04T14:03:58;15.70;;;4.22;;
64915;SDS011;51427;-27.442;153.014;2023-01-04T14:14:26;21.67;;;4.43;;
64915;SDS011;51427;-27.442;153.014;2023-01-04T14:22:32;11.70;;;3.97;;
64915;SDS011;51427;-27.442;153.014;2023-01-04T14:33:32;14.77;;;3.97;;
64915;SDS011;51427;-27.442;153.014;2023-01-04T14:44:07;13.73;;;3.67;;
64915;SDS011;51427;-27.442;153.014;2023-01-04T14:46:52;10.75;;;3.63;;
64915;SDS011;51427;-27.442;153.014;2023-01-04T14:49:21;14.27;;;3.85;;
64915;SDS011;51427;-27.442;153.014;2023-01-04T14:51:52;20.77;;;4.40;;
64915;SDS011;51427;-27.442;153.014;2023-01-04T14:54:24;15.98;;;4.13;;
64915;SDS011;51427;-27.442;153.014;2023-01-04T14:56:53;15.20;;;4.05;;
64915;SDS011;51427;-27.442;153.014;2023-01-04T14:59:21;17.02;;;4.25;;
64915;SDS011;51427;-27.442;153.014;2023-01-04T15:01:49;13.50;;;3.80;;
64915;SDS011;51427;-27.442;153.014;2023-01-04T15:04:17;18.83;;;3.85;;
64915;SDS011;51427;-27.442;153.014;2023-01-04T15:06:48;17.17;;;3.95;;
64915;SDS011;51427;-27.442;153.014;2023-01-04T15:09:20;16.20;;;4.50;;
64915;SDS011;51427;-27.442;153.014;2023-01-04T15:11:48;15.73;;;4.30;;
64915;SDS011;51427;-27.442;153.014;2023-01-04T15:14:16;17.05;;;4.30;;
64915;SDS011;51427;-27.442;153.014;2023-01-04T15:16:43;16.35;;;4.55;;
64915;SDS011;51427;-27.442;153.014;2023-01-04T15:19:10;11.63;;;4.00;;
64915;SDS011;51427;-27.442;153.014;2023-01-04T15:21:37;16.10;;;3.70;;
64915;SDS011;51427;-27.442;153.014;2023-01-04T15:24:05;12.70;;;3.70;;
64915;SDS011;51427;-27.442;153.014;2023-01-04T15:26:32;14.13;;;4.03;;
64915;SDS011;51427;-27.442;153.014;2023-01-04T15:29:00;16.75;;;4.00;;
64915;SDS011;51427;-27.442;153.014;2023-01-04T15:31:28;15.18;;;4.45;;
64915;SDS011;51427;-27.442;153.014;2023-01-04T15:33:57;15.23;;;3.72;;
64915;SDS011;51427;-27.442;153.014;2023-01-04T15:36:24;15.57;;;3.78;;
64915;SDS011;51427;-27.442;153.014;2023-01-04T15:38:54;10.88;;;3.42;;
64915;SDS011;51427;-27.442;153.014;2023-01-04T15:41:21;13.68;;;3.58;;
64915;SDS011;51427;-27.442;153.014;2023-01-04T15:44:10;12.88;;;3.55;;
64915;SDS011;51427;-27.442;153.014;2023-01-04T15:46:37;13.18;;;4.38;;
64915;SDS011;51427;-27.442;153.014;2023-01-04T15:49:05;9.70;;;3.50;;
64915;SDS011;51427;-27.442;153.014;2023-01-04T15:51:32;9.77;;;2.90;;
64915;SDS011;51427;-27.442;153.014;2023-01-04T15:53:59;9.27;;;3.47;;
64915;SDS011;51427;-27.442;153.014;2023-01-04T15:56:26;11.25;;;3.45;;
64915;SDS011;51427;-27.442;153.014;2023-01-04T15:58:54;12.30;;;3.50;;
64915;SDS011;51427;-27.442;153.014;2023-01-04T16:01:21;11.90;;;3.03;;
64915;SDS011;51427;-27.442;153.014;2023-01-04T16:03:49;8.48;;;3.00;;
64915;SDS011;51427;-27.442;153.014;2023-01-04T16:06:16;11.73;;;3.50;;
64915;SDS011;51427;-27.442;153.014;2023-01-04T16:08:43;9.95;;;2.72;;
64915;SDS011;51427;-27.442;153.014;2023-01-04T16:11:17;11.55;;;2.88;;
64915;SDS011;51427;-27.442;153.014;2023-01-04T16:13:47;12.10;;;3.28;;
64915;SDS011;51427;-27.442;153.014;2023-01-04T16:16:15;12.07;;;3.08;;
64915;SDS011;51427;-27.442;153.014;2023-01-04T16:18:50;10.10;;;2.72;;
64915;SDS011;51427;-27.442;153.014;2023-01-04T16:21:19;8.52;;;2.70;;
64915;SDS011;51427;-27.442;153.014;2023-01-04T16:23:55;10.13;;;3.53;;
64915;SDS011;51427;-27.442;153.014;2023-01-04T16:26:23;10.73;;;2.60;;
64915;SDS011;51427;-27.442;153.014;2023-01-04T16:28:51;9.38;;;2.90;;
64915;SDS011;51427;-27.442;153.014;2023-01-04T16:31:20;6.90;;;2.47;;
64915;SDS011;51427;-27.442;153.014;2023-01-04T16:33:52;4.88;;;2.25;;
64915;SDS011;51427;-27.442;153.014;2023-01-04T16:36:19;7.72;;;2.53;;
64915;SDS011;51427;-27.442;153.014;2023-01-04T16:38:47;9.52;;;2.47;;
64915;SDS011;51427;-27.442;153.014;2023-01-04T16:41:15;8.35;;;2.80;;
64915;SDS011;51427;-27.442;153.014;2023-01-04T16:43:46;11.50;;;2.88;;